Sault Sainte Marie, Michigan
Current Conditions -  °F | °C
As of 4:55 PM on Tuesday 25 Nov 2014 (Local Time) from KANJ Reporting Station
Light Snow Light Snow  
Wind Chill: 21°   Ceiling: 3600
Heat Index: 26°   Visibility: 6mi
Dew Point: 22°   Wind: 5mph
Humidity: 84%   Direction: 300°WNW
Pressure: 29.94"   Gusts: NA
Location:  46.3629°N, 84.3293°W
Report Text: KANJ 252155Z AUTO 30004KT 6SM -SN BR OVC036 M03/M06 A2994 RMK AO2 SLP147 P0001 T10331056
Loading
Personal Weather Stations






























Interactive Weather Map New forecast layout! Learn more

10-Day Weather Forecast

Advertisements
Track Severe Weather on mobile